Time;durP1;ratioP1;P1;durP2;ratioP2;P2;SDS_P1;SDS_P2;PMS_P1;PMS_P2;Temp;Humidity;BMP_temperature;BMP_pressure;BME280_temperature;BME280_humidity;BME280_pressure;Samples;Min_cycle;Max_cycle;Signal;HPM_P1;HPM_P2
2020/12/31 06:25:32;;;;;;;4.88;3.83;;;2.10;99.90;;;;;;12987726;22;20448;-93
2020/12/31 06:30:36;;;;;;;6.10;3.47;;;2.00;99.90;;;;;;12990217;22;20042;-92
2020/12/31 06:35:39;;;;;;;6.63;3.45;;;2.10;99.90;;;;;;12916593;22;20023;-93
2020/12/31 06:40:42;;;;;;;4.28;3.53;;;2.00;99.90;;;;;;12941093;22;20046;-93
2020/12/31 06:45:45;;;;;;;;;;;2.00;99.90;;;;;;12942309;22;20074;-94
2020/12/31 06:51:04;;;;;;;6.88;3.78;;;2.00;99.90;;;;;;12963084;22;19961;-92
2020/12/31 06:56:12;;;;;;;4.40;3.33;;;2.00;99.90;;;;;;12939012;22;20345;-93
2020/12/31 07:01:29;;;;;;;6.05;3.45;;;2.00;99.90;;;;;;12939191;22;20528;-92
2020/12/31 07:06:32;;;;;;;4.50;3.63;;;1.90;99.90;;;;;;12889751;22;20039;-92
2020/12/31 07:11:38;;;;;;;5.53;3.83;;;1.90;99.90;;;;;;12889304;22;20024;-92
2020/12/31 07:16:59;;;;;;;7.80;3.75;;;1.90;99.90;;;;;;12914550;22;20476;-93
2020/12/31 07:22:08;;;;;;;6.47;3.70;;;1.90;99.90;;;;;;12938993;22;20027;-92
2020/12/31 07:27:36;;;;;;;4.32;3.53;;;1.90;99.90;;;;;;12937795;22;20420;-92
2020/12/31 07:33:01;;;;;;;13.27;5.75;;;1.90;99.90;;;;;;12963356;22;20030;-93
2020/12/31 07:38:04;;;;;;;4.97;4.13;;;1.80;99.90;;;;;;12989894;22;20015;-92
2020/12/31 07:43:10;;;;;;;7.50;4.78;;;1.90;99.90;;;;;;12964077;22;20023;-92
2020/12/31 07:48:11;;;;;;;4.90;4.25;;;1.80;99.90;;;;;;12939003;22;20046;-92
2020/12/31 07:53:13;;;;;;;4.75;3.83;;;1.80;99.90;;;;;;12963946;22;20036;-92
2020/12/31 07:58:23;;;;;;;5.07;3.67;;;1.80;99.90;;;;;;12915011;22;20015;-92
2020/12/31 08:03:30;;;;;;;5.82;3.90;;;1.80;99.90;;;;;;12944102;22;20022;-92
2020/12/31 08:08:31;;;;;;;5.75;3.70;;;1.80;99.90;;;;;;12944257;22;20380;-91
2020/12/31 08:13:33;;;;;;;7.13;3.88;;;1.80;99.90;;;;;;12918109;22;20036;-92
2020/12/31 08:18:35;;;;;;;5.22;4.70;;;1.80;99.90;;;;;;12941485;22;20026;-92
2020/12/31 08:23:42;;;;;;;5.28;3.85;;;1.80;99.90;;;;;;12967414;22;20090;-91
2020/12/31 08:28:44;;;;;;;4.65;4.22;;;1.90;99.90;;;;;;12941580;22;20476;-92
2020/12/31 08:33:49;;;;;;;4.63;3.20;;;1.90;99.90;;;;;;12917286;22;20046;-92
2020/12/31 08:38:56;;;;;;;4.57;3.88;;;1.90;99.90;;;;;;12916052;22;20078;-92
2020/12/31 08:44:04;;;;;;;3.28;2.97;;;1.90;99.90;;;;;;12918678;22;20094;-92
2020/12/31 08:49:05;;;;;;;3.17;2.88;;;1.90;99.90;;;;;;12967466;22;20026;-92
2020/12/31 08:54:15;;;;;;;4.07;3.30;;;2.00;99.90;;;;;;12915926;22;20040;-92
2020/12/31 08:59:17;;;;;;;6.10;4.15;;;2.00;99.90;;;;;;12941805;22;20026;-92
2020/12/31 09:04:19;;;;;;;7.57;3.65;;;2.00;99.90;;;;;;12941334;22;20024;-92
2020/12/31 09:09:27;;;;;;;5.10;3.75;;;2.00;99.90;;;;;;12940879;22;20023;-93
2020/12/31 09:14:35;;;;;;;4.72;3.50;;;2.10;99.90;;;;;;12916802;22;20027;-92
2020/12/31 09:19:36;;;;;;;5.65;4.28;;;2.00;99.90;;;;;;12941726;22;20036;-92
2020/12/31 09:24:41;;;;;;;5.72;4.45;;;2.00;99.90;;;;;;12916016;22;20024;-94
2020/12/31 09:29:42;;;;;;;5.97;4.10;;;2.10;99.90;;;;;;12940682;22;20031;-92
2020/12/31 09:34:44;;;;;;;5.65;4.63;;;2.20;99.90;;;;;;12916497;22;20042;-93
2020/12/31 09:39:47;;;;;;;6.25;4.50;;;2.30;99.90;;;;;;12940181;22;20039;-92
2020/12/31 09:44:48;;;;;;;9.93;5.85;;;2.20;99.90;;;;;;12940170;22;20024;-92
2020/12/31 09:49:50;;;;;;;10.15;7.53;;;2.40;99.90;;;;;;12914529;22;20023;-93
2020/12/31 09:54:51;;;;;;;6.68;5.78;;;2.40;99.90;;;;;;12939985;22;20027;-93
2020/12/31 09:59:53;;;;;;;;;;;2.30;99.90;;;;;;12941022;22;20022;-92
2020/12/31 10:04:54;;;;;;;12.70;7.35;;;2.30;99.90;;;;;;12964554;22;19931;-92
2020/12/31 10:09:56;;;;;;;10.50;7.35;;;2.40;99.90;;;;;;12915922;22;20053;-93
2020/12/31 10:14:58;;;;;;;;;;;2.40;99.90;;;;;;12916028;22;20019;-93
2020/12/31 10:20:01;;;;;;;9.88;7.70;;;2.60;99.90;;;;;;12939896;22;19922;-92
2020/12/31 10:25:04;;;;;;;10.63;8.13;;;2.50;99.90;;;;;;12914416;22;20388;-93
2020/12/31 10:30:05;;;;;;;10.73;7.75;;;2.40;99.90;;;;;;12939419;22;20020;-92
2020/12/31 10:35:07;;;;;;;;;;;2.60;99.90;;;;;;12915053;22;20016;-93
2020/12/31 10:40:08;;;;;;;10.60;8.13;;;2.60;99.90;;;;;;12938763;22;19942;-93
2020/12/31 10:45:10;;;;;;;9.63;7.60;;;2.70;99.90;;;;;;12889747;22;20019;-93
2020/12/31 10:50:11;;;;;;;;;;;2.80;99.90;;;;;;12914253;22;20066;-93
2020/12/31 10:55:13;;;;;;;10.32;7.53;;;2.70;99.90;;;;;;12965412;22;19954;-92
2020/12/31 11:00:14;;;;;;;9.75;7.38;;;2.90;99.90;;;;;;12938734;22;20019;-93
2020/12/31 11:05:17;;;;;;;10.93;7.47;;;3.10;99.90;;;;;;12913961;22;20024;-93
2020/12/31 11:10:18;;;;;;;9.80;7.43;;;2.90;99.90;;;;;;12940285;22;20027;-92
2020/12/31 11:15:20;;;;;;;10.35;8.32;;;2.90;99.90;;;;;;12913455;22;20457;-92
2020/12/31 11:20:21;;;;;;;7.95;6.72;;;2.80;99.90;;;;;;12913589;22;20035;-93
2020/12/31 11:25:23;;;;;;;10.30;7.85;;;2.80;99.90;;;;;;12937855;22;20051;-94
2020/12/31 11:30:25;;;;;;;9.40;7.40;;;2.90;99.90;;;;;;12938480;22;20508;-93
2020/12/31 11:35:27;;;;;;;9.88;8.02;;;3.30;99.90;;;;;;12915528;22;20341;-94
2020/12/31 11:40:28;;;;;;;8.90;7.22;;;3.40;99.90;;;;;;12919107;22;20051;-94
2020/12/31 11:45:30;;;;;;;14.93;8.32;;;3.10;99.90;;;;;;12904770;22;20020;-92
2020/12/31 11:50:32;;;;;;;10.98;9.10;;;3.20;99.90;;;;;;12879266;23;20020;-92
2020/12/31 11:55:34;;;;;;;8.75;7.78;;;3.00;99.90;;;;;;12904064;23;20020;-92
2020/12/31 12:00:36;;;;;;;9.77;8.60;;;3.10;99.90;;;;;;12903865;23;20446;-92
2020/12/31 12:05:38;;;;;;;11.18;8.93;;;3.10;99.90;;;;;;12879132;23;20039;-92
2020/12/31 12:10:39;;;;;;;10.57;8.98;;;3.10;99.90;;;;;;12878729;23;20047;-92
2020/12/31 12:15:42;;;;;;;9.55;8.00;;;3.20;99.90;;;;;;12879344;23;20023;-94
2020/12/31 12:20:44;;;;;;;10.52;9.45;;;3.20;99.90;;;;;;12879721;23;20027;-93
2020/12/31 12:25:46;;;;;;;17.20;12.32;;;3.30;99.90;;;;;;12879244;23;20040;-92
2020/12/31 12:30:48;;;;;;;10.02;8.02;;;3.20;99.90;;;;;;12879426;23;20035;-91
2020/12/31 12:35:50;;;;;;;11.13;7.95;;;3.20;99.90;;;;;;12878297;23;20016;-93
2020/12/31 12:40:51;;;;;;;;;;;3.30;99.90;;;;;;12854214;23;20020;-93
2020/12/31 12:45:53;;;;;;;13.82;11.57;;;3.40;99.90;;;;;;12877945;23;19915;-93
2020/12/31 12:50:55;;;;;;;9.80;7.88;;;3.50;99.90;;;;;;12903213;23;20039;-96
2020/12/31 12:55:56;;;;;;;;;;;3.50;99.90;;;;;;12878857;23;20016;-93
2020/12/31 13:00:58;;;;;;;9.43;7.47;;;3.50;99.90;;;;;;12902884;23;19916;-94
2020/12/31 13:06:00;;;;;;;10.30;7.90;;;3.50;99.90;;;;;;12879182;23;20036;-94
2020/12/31 13:11:05;;;;;;;10.05;8.43;;;3.60;99.90;;;;;;12881067;23;20071;-94
2020/12/31 13:16:08;;;;;;;11.18;8.40;;;3.50;99.90;;;;;;12878414;23;20020;-93
2020/12/31 13:21:10;;;;;;;10.45;9.02;;;3.60;99.90;;;;;;12877720;23;20083;-93
2020/12/31 13:26:11;;;;;;;;;;;3.60;99.90;;;;;;12877784;23;20030;-93
2020/12/31 13:31:13;;;;;;;10.80;8.02;;;3.50;99.90;;;;;;12902398;23;19919;-94
2020/12/31 13:36:14;;;;;;;11.45;8.73;;;3.50;99.90;;;;;;12852401;23;20020;-93
2020/12/31 13:41:16;;;;;;;9.88;7.90;;;3.60;99.90;;;;;;12853271;23;20051;-94
2020/12/31 13:46:18;;;;;;;8.80;6.97;;;3.60;99.90;;;;;;12902233;23;20048;-94
2020/12/31 13:51:20;;;;;;;9.55;7.85;;;3.60;99.90;;;;;;12877086;23;20043;-94
2020/12/31 13:56:23;;;;;;;8.63;7.35;;;3.50;99.90;;;;;;12876566;23;20016;-94
2020/12/31 14:01:24;;;;;;;13.40;8.95;;;3.70;99.90;;;;;;12877201;23;20020;-94
2020/12/31 14:06:26;;;;;;;10.43;7.85;;;3.60;99.90;;;;;;12877422;23;20020;-94
2020/12/31 14:11:28;;;;;;;10.98;9.60;;;3.60;99.90;;;;;;12852503;23;20023;-94
2020/12/31 14:16:29;;;;;;;12.73;8.30;;;3.60;99.90;;;;;;12878548;23;20327;-93
2020/12/31 14:21:31;;;;;;;9.38;8.02;;;3.50;99.90;;;;;;12877573;23;20027;-94
2020/12/31 14:26:33;;;;;;;12.52;9.60;;;3.50;99.90;;;;;;12852644;23;20024;-94
2020/12/31 14:31:37;;;;;;;11.32;9.05;;;3.60;99.90;;;;;;12902054;23;20020;-94
2020/12/31 14:36:40;;;;;;;16.48;13.10;;;3.60;99.90;;;;;;12876246;23;20023;-93
2020/12/31 14:41:48;;;;;;;12.10;9.18;;;3.50;99.90;;;;;;12878125;23;20036;-94
2020/12/31 14:46:50;;;;;;;10.40;7.53;;;3.60;99.90;;;;;;12876703;23;20028;-95
2020/12/31 14:51:51;;;;;;;14.75;8.82;;;3.50;99.90;;;;;;12901013;23;20031;-95
2020/12/31 14:56:59;;;;;;;11.68;8.73;;;3.60;99.90;;;;;;12876216;23;20023;-95
2020/12/31 15:02:01;;;;;;;13.70;10.30;;;3.50;99.90;;;;;;12875498;23;20116;-94
2020/12/31 15:07:02;;;;;;;12.25;9.98;;;3.50;99.90;;;;;;12851901;23;20024;-94
2020/12/31 15:12:04;;;;;;;;;;;3.60;99.90;;;;;;12875550;23;20031;-94
2020/12/31 15:17:06;;;;;;;15.63;12.27;;;3.50;99.90;;;;;;12901640;23;19915;-94
2020/12/31 15:22:07;;;;;;;14.90;11.43;;;3.50;99.90;;;;;;12875620;23;20075;-94
2020/12/31 15:27:09;;;;;;;13.02;11.25;;;3.50;99.90;;;;;;12875258;23;20396;-94
2020/12/31 15:32:11;;;;;;;12.40;9.70;;;3.50;99.90;;;;;;12875428;23;20024;-95
2020/12/31 15:37:12;;;;;;;15.77;12.23;;;3.50;99.90;;;;;;12877298;23;20047;-94
2020/12/31 15:42:14;;;;;;;23.00;15.00;;;3.50;99.90;;;;;;12877187;23;20071;-95
2020/12/31 15:47:16;;;;;;;;;;;3.40;99.90;;;;;;12876161;23;20032;-95
2020/12/31 15:52:17;;;;;;;22.77;16.50;;;3.40;99.90;;;;;;12900778;23;19974;-95
2020/12/31 15:57:19;;;;;;;23.42;14.35;;;3.40;99.90;;;;;;12875107;23;20020;-94
2020/12/31 16:02:20;;;;;;;;;;;3.40;99.90;;;;;;12876376;23;20098;-95
2020/12/31 16:07:38;;;;;;;23.70;17.20;;;3.30;99.90;;;;;;12905027;23;19919;-95
2020/12/31 16:12:41;;;;;;;26.02;17.67;;;3.40;99.90;;;;;;12875814;23;20020;-95
2020/12/31 16:17:43;;;;;;;20.77;15.50;;;3.40;99.90;;;;;;12875527;23;20020;-95
2020/12/31 16:22:44;;;;;;;;;;;3.40;99.90;;;;;;12878374;23;20446;-95
2020/12/31 16:27:46;;;;;;;22.65;16.38;;;3.40;99.90;;;;;;12879891;23;19966;-96
2020/12/31 16:32:49;;;;;;;24.45;17.65;;;3.40;99.90;;;;;;12878452;23;20024;-95
2020/12/31 16:37:51;;;;;;;26.20;18.42;;;3.40;99.90;;;;;;12879115;23;20075;-95
2020/12/31 16:42:52;;;;;;;27.13;19.40;;;3.40;99.90;;;;;;12878654;23;20036;-94
2020/12/31 16:47:54;;;;;;;24.42;16.73;;;3.40;99.90;;;;;;12879477;23;20024;-95
2020/12/31 16:52:56;;;;;;;28.08;18.10;;;3.40;99.90;;;;;;12880228;23;20429;-96
2020/12/31 16:57:58;;;;;;;22.75;15.82;;;3.40;99.90;;;;;;12878905;23;20043;-96
2020/12/31 17:03:00;;;;;;;19.83;14.95;;;3.30;99.90;;;;;;12878656;23;20016;-96
2020/12/31 17:08:02;;;;;;;25.48;17.55;;;3.30;99.90;;;;;;12878022;23;20075;-96
2020/12/31 17:13:03;;;;;;;31.33;18.83;;;3.30;99.90;;;;;;12877955;23;20445;-95
2020/12/31 17:18:05;;;;;;;21.98;16.45;;;3.30;99.90;;;;;;12878563;23;20450;-95
2020/12/31 17:23:07;;;;;;;26.35;17.45;;;3.30;99.90;;;;;;12878549;23;20024;-96
2020/12/31 17:28:09;;;;;;;26.20;17.83;;;3.30;99.90;;;;;;12877512;23;20326;-95
2020/12/31 17:33:10;;;;;;;23.88;16.73;;;3.20;99.90;;;;;;12877824;23;20446;-95
2020/12/31 17:38:12;;;;;;;;;;;3.20;99.90;;;;;;12877571;23;20043;-95
2020/12/31 20:23:54;;;;;;;27.35;18.80;;;2.20;99.90;;;;;;12939772;22;20020;-94
2020/12/31 20:28:56;;;;;;;27.60;18.13;;;2.30;99.90;;;;;;12880565;23;20024;-93
2020/12/31 20:33:57;;;;;;;40.00;21.02;;;2.30;99.90;;;;;;12854948;23;20024;-93
2020/12/31 20:39:00;;;;;;;34.08;21.85;;;2.30;99.90;;;;;;12854934;23;20070;-93
2020/12/31 20:44:07;;;;;;;44.78;23.92;;;2.20;99.90;;;;;;12879331;23;20107;-93
2020/12/31 20:49:15;;;;;;;;;;;2.30;99.90;;;;;;12882374;23;20026;-93
2020/12/31 20:54:34;;;;;;;39.97;25.42;;;2.30;99.90;;;;;;12906684;23;19922;-93
2020/12/31 20:59:39;;;;;;;42.75;27.77;;;2.40;99.90;;;;;;12857473;23;20376;-93
2020/12/31 21:04:41;;;;;;;65.97;38.45;;;2.30;99.90;;;;;;12878258;23;20016;-93
2020/12/31 21:09:42;;;;;;;51.00;31.08;;;2.30;99.90;;;;;;12853432;23;20020;-93
2020/12/31 21:14:44;;;;;;;69.03;42.95;;;2.30;99.90;;;;;;12878114;23;20027;-93
2020/12/31 21:19:45;;;;;;;;;;;2.40;99.90;;;;;;12878029;23;20458;-94
2020/12/31 21:24:50;;;;;;;143.63;106.43;;;2.30;99.90;;;;;;12877991;23;20352;-92
2020/12/31 21:29:54;;;;;;;88.28;57.00;;;2.30;99.90;;;;;;12853549;23;20341;-93
2020/12/31 21:34:56;;;;;;;92.55;59.17;;;2.30;99.90;;;;;;12877421;23;20040;-93
2020/12/31 21:39:57;;;;;;;70.65;43.10;;;2.40;99.90;;;;;;12877391;23;20020;-92
2020/12/31 21:44:59;;;;;;;86.55;51.25;;;2.30;99.90;;;;;;12878333;23;20031;-92
2020/12/31 21:55:52;;;;;;;70.15;43.05;;;2.40;99.90;;;;;;12799809;23;20025;-93
2020/12/31 22:00:54;;;;;;;78.03;48.60;;;2.40;99.90;;;;;;12774452;23;20104;-93
2020/12/31 22:05:55;;;;;;;;;;;2.40;99.90;;;;;;12725974;23;20040;-93
2020/12/31 22:10:57;;;;;;;85.88;53.05;;;2.40;99.90;;;;;;12800125;23;19923;-93
2020/12/31 22:15:58;;;;;;;77.53;50.03;;;2.40;99.90;;;;;;12725129;23;20099;-92
2020/12/31 22:21:00;;;;;;;80.90;50.45;;;2.50;99.90;;;;;;12798483;23;20076;-93
2020/12/31 22:26:01;;;;;;;90.57;56.50;;;2.40;99.90;;;;;;12844184;23;20028;-93
2020/12/31 22:31:04;;;;;;;;;;;2.40;99.90;;;;;;12877499;23;20440;-93
2020/12/31 22:36:06;;;;;;;80.68;52.00;;;2.40;99.90;;;;;;12901444;23;19916;-93
2020/12/31 22:41:07;;;;;;;91.75;55.17;;;2.40;99.90;;;;;;12851823;23;20047;-92
2020/12/31 22:46:10;;;;;;;96.75;59.60;;;2.50;99.90;;;;;;12852632;23;20024;-93
2020/12/31 22:51:12;;;;;;;89.28;56.97;;;2.50;99.90;;;;;;12875570;23;20039;-92
2020/12/31 22:56:13;;;;;;;93.65;59.55;;;2.50;99.90;;;;;;12851100;23;20016;-93
2020/12/31 23:01:19;;;;;;;85.15;53.50;;;2.40;99.90;;;;;;12851373;23;20327;-92
2020/12/31 23:06:20;;;;;;;101.15;65.05;;;2.40;99.90;;;;;;12856116;23;20028;-95
2020/12/31 23:11:23;;;;;;;186.70;119.93;;;2.50;99.90;;;;;;12874999;23;20024;-92
2020/12/31 23:16:27;;;;;;;264.08;180.63;;;2.40;99.90;;;;;;12875317;23;20055;-92
2020/12/31 23:21:39;;;;;;;162.40;109.07;;;2.30;99.90;;;;;;12875524;23;20027;-91
2020/12/31 23:26:42;;;;;;;;;;;2.20;99.90;;;;;;12852470;23;20044;-93
2020/12/31 23:31:45;;;;;;;163.15;105.35;;;2.20;99.90;;;;;;12901182;23;19916;-91
2020/12/31 23:36:50;;;;;;;172.80;114.78;;;2.10;99.90;;;;;;12879260;23;20022;-96
2020/12/31 23:41:52;;;;;;;164.90;104.85;;;2.00;99.90;;;;;;12861509;22;20039;-92
2020/12/31 23:46:56;;;;;;;;;;;2.00;99.90;;;;;;12899949;23;20027;-92
2020/12/31 23:51:58;;;;;;;103.88;65.03;;;1.90;99.90;;;;;;12876067;23;19923;-92
2020/12/31 23:57:00;;;;;;;94.47;59.08;;;1.80;99.90;;;;;;12850698;23;20603;-92
